sensor_id;sensor_type;location;lat;lon;timestamp;pressure;altitude;pressure_sealevel;temperature;humidity
45864;BME280;31579;52.354;16.974;2023-04-25T00:01:02;442.9;;;-146.1;100.0
45864;BME280;31579;52.354;16.974;2023-04-25T00:02:05;442.5;;;-146.1;100.0
45864;BME280;31579;52.354;16.974;2023-04-25T00:03:10;443.7;;;-146.1;100.0
45864;BME280;31579;52.354;16.974;2023-04-25T00:04:14;443.4;;;-146.1;100.0
45864;BME280;31579;52.354;16.974;2023-04-25T00:05:18;443.1;;;-146.1;100.0
45864;BME280;31579;52.354;16.974;2023-04-25T00:06:22;443.3;;;-146.1;100.0
45864;BME280;31579;52.354;16.974;2023-04-25T00:07:15;457.3;;;-146.1;100.0
45864;BME280;31579;52.354;16.974;2023-04-25T00:08:19;448.4;;;-146.1;100.0
45864;BME280;31579;52.354;16.974;2023-04-25T00:09:23;447.2;;;-146.1;100.0
45864;BME280;31579;52.354;16.974;2023-04-25T00:10:27;445.7;;;-146.1;100.0
45864;BME280;31579;52.354;16.974;2023-04-25T00:11:31;445.3;;;-146.1;100.0
45864;BME280;31579;52.354;16.974;2023-04-25T00:12:35;444.4;;;-146.1;100.0
45864;BME280;31579;52.354;16.974;2023-04-25T00:13:39;444.0;;;-146.1;100.0
45864;BME280;31579;52.354;16.974;2023-04-25T00:14:43;444.0;;;-146.1;100.0
45864;BME280;31579;52.354;16.974;2023-04-25T00:15:47;443.9;;;-146.1;100.0
45864;BME280;31579;52.354;16.974;2023-04-25T00:16:51;443.9;;;-146.1;100.0
45864;BME280;31579;52.354;16.974;2023-04-25T00:17:55;443.5;;;-146.1;100.0
45864;BME280;31579;52.354;16.974;2023-04-25T00:18:59;443.8;;;-146.1;100.0
45864;BME280;31579;52.354;16.974;2023-04-25T00:20:04;443.5;;;-146.1;100.0
45864;BME280;31579;52.354;16.974;2023-04-25T00:21:07;443.3;;;-146.1;100.0
45864;BME280;31579;52.354;16.974;2023-04-25T00:22:24;58.4;;;-146.1;100.0
45864;BME280;31579;52.354;16.974;2023-04-25T00:23:28;115.2;;;-146.1;100.0
45864;BME280;31579;52.354;16.974;2023-04-25T00:24:32;159.2;;;-146.1;100.0
45864;BME280;31579;52.354;16.974;2023-04-25T00:25:36;223.1;;;-146.1;100.0
45864;BME280;31579;52.354;16.974;2023-04-25T00:26:40;282.0;;;-146.1;100.0
45864;BME280;31579;52.354;16.974;2023-04-25T00:27:44;331.3;;;-146.1;100.0
45864;BME280;31579;52.354;16.974;2023-04-25T00:28:48;369.8;;;-146.1;100.0
45864;BME280;31579;52.354;16.974;2023-04-25T00:29:52;393.9;;;-146.1;100.0
45864;BME280;31579;52.354;16.974;2023-04-25T00:30:56;408.5;;;-146.1;100.0
45864;BME280;31579;52.354;16.974;2023-04-25T00:32:01;417.4;;;-146.1;100.0
45864;BME280;31579;52.354;16.974;2023-04-25T00:33:05;424.3;;;-146.1;100.0
45864;BME280;31579;52.354;16.974;2023-04-25T00:34:09;427.1;;;-146.1;100.0
45864;BME280;31579;52.354;16.974;2023-04-25T00:35:13;429.5;;;-146.1;100.0
45864;BME280;31579;52.354;16.974;2023-04-25T00:36:17;431.7;;;-146.1;100.0
45864;BME280;31579;52.354;16.974;2023-04-25T00:37:21;433.9;;;-146.1;100.0
45864;BME280;31579;52.354;16.974;2023-04-25T00:38:25;435.3;;;-146.1;100.0
45864;BME280;31579;52.354;16.974;2023-04-25T00:39:29;436.1;;;-146.1;100.0
45864;BME280;31579;52.354;16.974;2023-04-25T00:40:34;437.6;;;-146.1;100.0
45864;BME280;31579;52.354;16.974;2023-04-25T00:41:38;436.4;;;-146.1;100.0
45864;BME280;31579;52.354;16.974;2023-04-25T00:42:42;436.5;;;-146.1;100.0
45864;BME280;31579;52.354;16.974;2023-04-25T00:43:48;436.8;;;-146.1;100.0
45864;BME280;31579;52.354;16.974;2023-04-25T00:44:52;436.4;;;-146.1;100.0
45864;BME280;31579;52.354;16.974;2023-04-25T00:45:55;436.0;;;-146.1;100.0
45864;BME280;31579;52.354;16.974;2023-04-25T00:47:00;436.2;;;-146.1;100.0
45864;BME280;31579;52.354;16.974;2023-04-25T00:48:04;437.0;;;-146.1;100.0
45864;BME280;31579;52.354;16.974;2023-04-25T00:49:07;438.1;;;-146.1;100.0
45864;BME280;31579;52.354;16.974;2023-04-25T00:50:11;438.0;;;-146.1;100.0
45864;BME280;31579;52.354;16.974;2023-04-25T00:51:18;438.5;;;-146.1;100.0
45864;BME280;31579;52.354;16.974;2023-04-25T00:52:19;438.1;;;-146.1;100.0
45864;BME280;31579;52.354;16.974;2023-04-25T00:53:24;438.3;;;-146.1;100.0
45864;BME280;31579;52.354;16.974;2023-04-25T00:54:27;438.5;;;-146.1;100.0
45864;BME280;31579;52.354;16.974;2023-04-25T00:55:31;438.8;;;-146.1;100.0
45864;BME280;31579;52.354;16.974;2023-04-25T00:56:35;438.8;;;-146.1;100.0
45864;BME280;31579;52.354;16.974;2023-04-25T00:57:39;439.1;;;-146.1;100.0
45864;BME280;31579;52.354;16.974;2023-04-25T00:58:43;439.3;;;-146.1;100.0
45864;BME280;31579;52.354;16.974;2023-04-25T00:59:48;439.9;;;-146.1;100.0
45864;BME280;31579;52.354;16.974;2023-04-25T01:00:52;439.9;;;-146.1;100.0
45864;BME280;31579;52.354;16.974;2023-04-25T01:02:59;451.1;;;-146.1;100.0
45864;BME280;31579;52.354;16.974;2023-04-25T01:04:03;449.0;;;-146.1;100.0
45864;BME280;31579;52.354;16.974;2023-04-25T01:05:07;447.3;;;-146.1;100.0
45864;BME280;31579;52.354;16.974;2023-04-25T01:06:11;446.0;;;-146.1;100.0
45864;BME280;31579;52.354;16.974;2023-04-25T01:07:15;445.1;;;-146.1;100.0
45864;BME280;31579;52.354;16.974;2023-04-25T01:08:20;444.7;;;-146.1;100.0
45864;BME280;31579;52.354;16.974;2023-04-25T01:09:23;443.8;;;-146.1;100.0
45864;BME280;31579;52.354;16.974;2023-04-25T01:10:27;443.8;;;-146.1;100.0
45864;BME280;31579;52.354;16.974;2023-04-25T01:11:31;443.2;;;-146.1;100.0
45864;BME280;31579;52.354;16.974;2023-04-25T01:12:35;443.1;;;-146.1;100.0
45864;BME280;31579;52.354;16.974;2023-04-25T01:13:39;442.5;;;-146.1;100.0
45864;BME280;31579;52.354;16.974;2023-04-25T01:14:43;441.8;;;-146.1;100.0
45864;BME280;31579;52.354;16.974;2023-04-25T01:15:47;441.1;;;-146.1;100.0
45864;BME280;31579;52.354;16.974;2023-04-25T01:16:51;440.3;;;-146.1;100.0
45864;BME280;31579;52.354;16.974;2023-04-25T01:17:55;440.1;;;-146.1;100.0
45864;BME280;31579;52.354;16.974;2023-04-25T01:18:59;439.9;;;-146.1;100.0
45864;BME280;31579;52.354;16.974;2023-04-25T01:20:05;439.6;;;-146.1;100.0
45864;BME280;31579;52.354;16.974;2023-04-25T01:21:08;439.8;;;-146.1;100.0
45864;BME280;31579;52.354;16.974;2023-04-25T01:22:11;440.4;;;-146.1;100.0
45864;BME280;31579;52.354;16.974;2023-04-25T01:23:15;440.4;;;-146.1;100.0
45864;BME280;31579;52.354;16.974;2023-04-25T01:24:19;440.6;;;-146.1;100.0
45864;BME280;31579;52.354;16.974;2023-04-25T01:25:23;440.3;;;-146.1;100.0
45864;BME280;31579;52.354;16.974;2023-04-25T01:26:28;441.0;;;-146.1;100.0
45864;BME280;31579;52.354;16.974;2023-04-25T01:27:32;440.0;;;-146.1;100.0
45864;BME280;31579;52.354;16.974;2023-04-25T01:28:36;439.7;;;-146.1;100.0
45864;BME280;31579;52.354;16.974;2023-04-25T01:29:40;439.7;;;-146.1;100.0
45864;BME280;31579;52.354;16.974;2023-04-25T01:30:44;439.4;;;-146.1;100.0
45864;BME280;31579;52.354;16.974;2023-04-25T01:31:48;438.3;;;-146.1;100.0
45864;BME280;31579;52.354;16.974;2023-04-25T01:32:53;437.8;;;-146.1;100.0
45864;BME280;31579;52.354;16.974;2023-04-25T01:33:57;437.8;;;-146.1;100.0
45864;BME280;31579;52.354;16.974;2023-04-25T01:35:08;394.3;;;-146.1;100.0
45864;BME280;31579;52.354;16.974;2023-04-25T01:36:11;411.1;;;-146.1;100.0
45864;BME280;31579;52.354;16.974;2023-04-25T01:37:16;417.3;;;-146.1;100.0
45864;BME280;31579;52.354;16.974;2023-04-25T01:38:19;421.3;;;-146.1;100.0
45864;BME280;31579;52.354;16.974;2023-04-25T01:39:23;424.0;;;-146.1;100.0
45864;BME280;31579;52.354;16.974;2023-04-25T01:40:18;438.5;;;-146.1;100.0
45864;BME280;31579;52.354;16.974;2023-04-25T01:41:22;429.7;;;-146.1;100.0
45864;BME280;31579;52.354;16.974;2023-04-25T01:42:25;429.8;;;-146.1;100.0
45864;BME280;31579;52.354;16.974;2023-04-25T01:43:29;429.7;;;-146.1;100.0
45864;BME280;31579;52.354;16.974;2023-04-25T01:44:33;429.7;;;-146.1;100.0
45864;BME280;31579;52.354;16.974;2023-04-25T01:45:38;430.2;;;-146.1;100.0
45864;BME280;31579;52.354;16.974;2023-04-25T01:46:42;430.1;;;-146.1;100.0
45864;BME280;31579;52.354;16.974;2023-04-25T01:47:46;429.9;;;-146.1;100.0
45864;BME280;31579;52.354;16.974;2023-04-25T01:48:50;429.5;;;-146.1;100.0
45864;BME280;31579;52.354;16.974;2023-04-25T01:49:55;429.6;;;-146.1;100.0
45864;BME280;31579;52.354;16.974;2023-04-25T01:50:59;431.4;;;-146.1;100.0
45864;BME280;31579;52.354;16.974;2023-04-25T01:52:04;431.1;;;-146.1;100.0
45864;BME280;31579;52.354;16.974;2023-04-25T01:53:08;430.3;;;-146.1;100.0
45864;BME280;31579;52.354;16.974;2023-04-25T01:54:11;430.6;;;-146.1;100.0
45864;BME280;31579;52.354;16.974;2023-04-25T01:55:16;429.6;;;-146.1;100.0
45864;BME280;31579;52.354;16.974;2023-04-25T01:56:20;430.1;;;-146.1;100.0
45864;BME280;31579;52.354;16.974;2023-04-25T01:57:23;429.8;;;-146.1;100.0
45864;BME280;31579;52.354;16.974;2023-04-25T01:58:28;430.6;;;-146.1;100.0
45864;BME280;31579;52.354;16.974;2023-04-25T01:59:31;430.0;;;-146.1;100.0
45864;BME280;31579;52.354;16.974;2023-04-25T02:00:36;430.8;;;-146.1;100.0
45864;BME280;31579;52.354;16.974;2023-04-25T02:01:39;430.3;;;-146.1;100.0
45864;BME280;31579;52.354;16.974;2023-04-25T02:02:43;431.1;;;-146.1;100.0
45864;BME280;31579;52.354;16.974;2023-04-25T02:03:48;430.9;;;-146.1;100.0
45864;BME280;31579;52.354;16.974;2023-04-25T02:04:52;432.0;;;-146.1;100.0
45864;BME280;31579;52.354;16.974;2023-04-25T02:05:56;432.3;;;-146.1;100.0
45864;BME280;31579;52.354;16.974;2023-04-25T02:07:00;432.3;;;-146.1;100.0
45864;BME280;31579;52.354;16.974;2023-04-25T02:08:19;326.9;;;-146.1;100.0
45864;BME280;31579;52.354;16.974;2023-04-25T02:09:23;365.3;;;-146.1;100.0
45864;BME280;31579;52.354;16.974;2023-04-25T02:10:27;389.4;;;-146.1;100.0
45864;BME280;31579;52.354;16.974;2023-04-25T02:11:31;403.0;;;-146.1;100.0
45864;BME280;31579;52.354;16.974;2023-04-25T02:12:35;411.1;;;-146.1;100.0
45864;BME280;31579;52.354;16.974;2023-04-25T02:13:40;418.4;;;-146.1;100.0
45864;BME280;31579;52.354;16.974;2023-04-25T02:14:44;421.6;;;-146.1;100.0
45864;BME280;31579;52.354;16.974;2023-04-25T02:15:48;424.0;;;-146.1;100.0
45864;BME280;31579;52.354;16.974;2023-04-25T02:16:53;427.1;;;-146.1;100.0
45864;BME280;31579;52.354;16.974;2023-04-25T02:17:57;428.9;;;-146.1;100.0
45864;BME280;31579;52.354;16.974;2023-04-25T02:19:01;429.3;;;-146.1;100.0
45864;BME280;31579;52.354;16.974;2023-04-25T02:20:06;431.3;;;-146.1;100.0
45864;BME280;31579;52.354;16.974;2023-04-25T02:21:10;430.8;;;-146.1;100.0
45864;BME280;31579;52.354;16.974;2023-04-25T02:22:14;430.5;;;-146.1;100.0
45864;BME280;31579;52.354;16.974;2023-04-25T02:23:19;431.7;;;-146.1;100.0
45864;BME280;31579;52.354;16.974;2023-04-25T02:24:23;431.4;;;-146.1;100.0
45864;BME280;31579;52.354;16.974;2023-04-25T02:25:27;431.3;;;-146.1;100.0
45864;BME280;31579;52.354;16.974;2023-04-25T02:26:31;430.8;;;-146.1;100.0
45864;BME280;31579;52.354;16.974;2023-04-25T02:27:35;430.5;;;-146.1;100.0
45864;BME280;31579;52.354;16.974;2023-04-25T02:28:39;429.9;;;-146.1;100.0
45864;BME280;31579;52.354;16.974;2023-04-25T02:29:43;429.3;;;-146.1;100.0
45864;BME280;31579;52.354;16.974;2023-04-25T02:30:47;428.9;;;-146.1;100.0
45864;BME280;31579;52.354;16.974;2023-04-25T02:31:51;430.0;;;-146.1;100.0
45864;BME280;31579;52.354;16.974;2023-04-25T02:32:55;430.3;;;-146.1;100.0
45864;BME280;31579;52.354;16.974;2023-04-25T02:33:59;430.0;;;-146.1;100.0
45864;BME280;31579;52.354;16.974;2023-04-25T02:35:03;429.5;;;-146.1;100.0
45864;BME280;31579;52.354;16.974;2023-04-25T02:36:07;429.5;;;-146.1;100.0
45864;BME280;31579;52.354;16.974;2023-04-25T02:37:11;429.1;;;-146.1;100.0
45864;BME280;31579;52.354;16.974;2023-04-25T02:38:14;460.3;;;-146.1;100.0
45864;BME280;31579;52.354;16.974;2023-04-25T02:39:18;446.9;;;-146.1;100.0
45864;BME280;31579;52.354;16.974;2023-04-25T02:40:22;443.3;;;-146.1;100.0
45864;BME280;31579;52.354;16.974;2023-04-25T02:41:26;440.5;;;-146.1;100.0
45864;BME280;31579;52.354;16.974;2023-04-25T02:42:30;437.7;;;-146.1;100.0
45864;BME280;31579;52.354;16.974;2023-04-25T02:43:49;338.2;;;-146.1;100.0
45864;BME280;31579;52.354;16.974;2023-04-25T02:44:53;373.1;;;-146.1;100.0
45864;BME280;31579;52.354;16.974;2023-04-25T02:45:57;390.9;;;-146.1;100.0
45864;BME280;31579;52.354;16.974;2023-04-25T02:47:09;195.2;;;-146.1;100.0
45864;BME280;31579;52.354;16.974;2023-04-25T02:48:14;282.3;;;-146.1;100.0
45864;BME280;31579;52.354;16.974;2023-04-25T02:49:18;321.9;;;-146.1;100.0
45864;BME280;31579;52.354;16.974;2023-04-25T02:50:23;353.6;;;-146.1;100.0
45864;BME280;31579;52.354;16.974;2023-04-25T02:51:27;369.6;;;-146.1;100.0
45864;BME280;31579;52.354;16.974;2023-04-25T02:52:31;380.8;;;-146.1;100.0
45864;BME280;31579;52.354;16.974;2023-04-25T02:53:35;388.7;;;-146.1;100.0
45864;BME280;31579;52.354;16.974;2023-04-25T02:54:39;394.8;;;-146.1;100.0
45864;BME280;31579;52.354;16.974;2023-04-25T02:55:48;275.1;;;-146.1;100.0
45864;BME280;31579;52.354;16.974;2023-04-25T02:56:52;324.1;;;-146.1;100.0
45864;BME280;31579;52.354;16.974;2023-04-25T02:57:56;349.8;;;-146.1;100.0
45864;BME280;31579;52.354;16.974;2023-04-25T02:59:00;366.6;;;-146.1;100.0
45864;BME280;31579;52.354;16.974;2023-04-25T03:00:06;382.1;;;-146.1;100.0
45864;BME280;31579;52.354;16.974;2023-04-25T03:01:09;390.8;;;-146.1;100.0
45864;BME280;31579;52.354;16.974;2023-04-25T03:02:13;396.3;;;-146.1;100.0
45864;BME280;31579;52.354;16.974;2023-04-25T03:03:17;399.2;;;-146.1;100.0
45864;BME280;31579;52.354;16.974;2023-04-25T03:04:21;402.6;;;-146.1;100.0
45864;BME280;31579;52.354;16.974;2023-04-25T03:05:25;405.2;;;-146.1;100.0
45864;BME280;31579;52.354;16.974;2023-04-25T03:06:29;403.0;;;-146.1;100.0
45864;BME280;31579;52.354;16.974;2023-04-25T03:07:33;402.5;;;-146.1;100.0
45864;BME280;31579;52.354;16.974;2023-04-25T03:08:37;401.8;;;-146.1;100.0
45864;BME280;31579;52.354;16.974;2023-04-25T03:09:42;404.1;;;-146.1;100.0
45864;BME280;31579;52.354;16.974;2023-04-25T03:10:46;404.9;;;-146.1;100.0
45864;BME280;31579;52.354;16.974;2023-04-25T03:11:50;404.2;;;-146.1;100.0
45864;BME280;31579;52.354;16.974;2023-04-25T03:12:55;406.6;;;-146.1;100.0
45864;BME280;31579;52.354;16.974;2023-04-25T03:14:00;403.8;;;-146.1;100.0
45864;BME280;31579;52.354;16.974;2023-04-25T03:15:04;403.1;;;-146.1;100.0
45864;BME280;31579;52.354;16.974;2023-04-25T03:16:07;402.9;;;-146.1;100.0
45864;BME280;31579;52.354;16.974;2023-04-25T03:17:11;401.8;;;-146.1;100.0
45864;BME280;31579;52.354;16.974;2023-04-25T03:18:15;400.2;;;-146.1;100.0
45864;BME280;31579;52.354;16.974;2023-04-25T03:19:19;399.5;;;-146.1;100.0
45864;BME280;31579;52.354;16.974;2023-04-25T03:20:23;398.8;;;-146.1;100.0
45864;BME280;31579;52.354;16.974;2023-04-25T03:21:27;398.6;;;-146.1;100.0
45864;BME280;31579;52.354;16.974;2023-04-25T03:22:31;397.3;;;-146.1;100.0
45864;BME280;31579;52.354;16.974;2023-04-25T03:23:35;397.4;;;-146.1;100.0
45864;BME280;31579;52.354;16.974;2023-04-25T03:24:39;397.3;;;-146.1;100.0
45864;BME280;31579;52.354;16.974;2023-04-25T03:25:43;398.0;;;-146.1;100.0
45864;BME280;31579;52.354;16.974;2023-04-25T03:26:47;397.7;;;-146.1;100.0
45864;BME280;31579;52.354;16.974;2023-04-25T03:27:51;397.7;;;-146.1;100.0
45864;BME280;31579;52.354;16.974;2023-04-25T03:28:56;400.8;;;-146.1;100.0
45864;BME280;31579;52.354;16.974;2023-04-25T03:30:00;400.4;;;-146.1;100.0
45864;BME280;31579;52.354;16.974;2023-04-25T03:31:05;402.6;;;-146.1;100.0
45864;BME280;31579;52.354;16.974;2023-04-25T03:32:09;400.7;;;-146.1;100.0
45864;BME280;31579;52.354;16.974;2023-04-25T03:33:13;399.7;;;-146.1;100.0
45864;BME280;31579;52.354;16.974;2023-04-25T03:34:17;399.5;;;-146.1;100.0
45864;BME280;31579;52.354;16.974;2023-04-25T03:35:21;399.6;;;-146.1;100.0
45864;BME280;31579;52.354;16.974;2023-04-25T03:36:25;399.7;;;-146.1;100.0
45864;BME280;31579;52.354;16.974;2023-04-25T03:37:29;400.2;;;-146.1;100.0
45864;BME280;31579;52.354;16.974;2023-04-25T03:38:33;400.4;;;-146.1;100.0
45864;BME280;31579;52.354;16.974;2023-04-25T03:39:37;399.7;;;-146.1;100.0
45864;BME280;31579;52.354;16.974;2023-04-25T03:40:41;399.3;;;-146.1;100.0
45864;BME280;31579;52.354;16.974;2023-04-25T03:41:44;440.3;;;-146.1;100.0
45864;BME280;31579;52.354;16.974;2023-04-25T03:42:46;461.8;;;-146.1;100.0
45864;BME280;31579;52.354;16.974;2023-04-25T03:43:50;444.3;;;-146.1;100.0
45864;BME280;31579;52.354;16.974;2023-04-25T03:44:54;438.5;;;-146.1;100.0
45864;BME280;31579;52.354;16.974;2023-04-25T03:45:58;434.2;;;-146.1;100.0
45864;BME280;31579;52.354;16.974;2023-04-25T03:47:00;463.1;;;-146.1;100.0
45864;BME280;31579;52.354;16.974;2023-04-25T03:48:03;460.7;;;-146.1;100.0
45864;BME280;31579;52.354;16.974;2023-04-25T03:49:07;450.7;;;-146.1;100.0
45864;BME280;31579;52.354;16.974;2023-04-25T03:50:11;445.6;;;-146.1;100.0
45864;BME280;31579;52.354;16.974;2023-04-25T03:51:15;440.9;;;-146.1;100.0
45864;BME280;31579;52.354;16.974;2023-04-25T03:52:19;437.1;;;-146.1;100.0
45864;BME280;31579;52.354;16.974;2023-04-25T03:53:23;433.5;;;-146.1;100.0
45864;BME280;31579;52.354;16.974;2023-04-25T03:54:27;430.2;;;-146.1;100.0
45864;BME280;31579;52.354;16.974;2023-04-25T03:55:31;427.6;;;-146.1;100.0
45864;BME280;31579;52.354;16.974;2023-04-25T03:56:35;425.6;;;-146.1;100.0
45864;BME280;31579;52.354;16.974;2023-04-25T03:57:40;424.3;;;-146.1;100.0
45864;BME280;31579;52.354;16.974;2023-04-25T03:58:45;342.9;;;-146.1;100.0
45864;BME280;31579;52.354;16.974;2023-04-25T03:59:49;395.3;;;-146.1;100.0
45864;BME280;31579;52.354;16.974;2023-04-25T04:00:53;400.9;;;-146.1;100.0
45864;BME280;31579;52.354;16.974;2023-04-25T04:01:57;404.1;;;-146.1;100.0
45864;BME280;31579;52.354;16.974;2023-04-25T04:03:01;407.0;;;-146.1;100.0
45864;BME280;31579;52.354;16.974;2023-04-25T04:04:05;410.4;;;-146.1;100.0
45864;BME280;31579;52.354;16.974;2023-04-25T04:05:09;412.8;;;-146.1;100.0
45864;BME280;31579;52.354;16.974;2023-04-25T04:06:13;414.7;;;-146.1;100.0
45864;BME280;31579;52.354;16.974;2023-04-25T04:07:17;416.8;;;-146.1;100.0
45864;BME280;31579;52.354;16.974;2023-04-25T04:08:21;418.1;;;-146.1;100.0
45864;BME280;31579;52.354;16.974;2023-04-25T04:09:25;420.1;;;-146.1;100.0
45864;BME280;31579;52.354;16.974;2023-04-25T04:10:29;422.3;;;-146.1;100.0
45864;BME280;31579;52.354;16.974;2023-04-25T04:11:33;423.2;;;-146.1;100.0
45864;BME280;31579;52.354;16.974;2023-04-25T04:12:38;423.7;;;-146.1;100.0
45864;BME280;31579;52.354;16.974;2023-04-25T04:13:41;424.2;;;-146.1;100.0
45864;BME280;31579;52.354;16.974;2023-04-25T04:14:44;451.1;;;-146.1;100.0
45864;BME280;31579;52.354;16.974;2023-04-25T04:15:46;467.4;;;-146.1;100.0
45864;BME280;31579;52.354;16.974;2023-04-25T04:16:51;454.9;;;-146.1;100.0
45864;BME280;31579;52.354;16.974;2023-04-25T04:17:55;452.5;;;-146.1;100.0
45864;BME280;31579;52.354;16.974;2023-04-25T04:18:59;449.6;;;-146.1;100.0
45864;BME280;31579;52.354;16.974;2023-04-25T04:20:10;410.7;;;-146.1;100.0
45864;BME280;31579;52.354;16.974;2023-04-25T04:21:13;420.4;;;-146.1;100.0
45864;BME280;31579;52.354;16.974;2023-04-25T04:22:17;428.0;;;-146.1;100.0
45864;BME280;31579;52.354;16.974;2023-04-25T04:23:21;433.0;;;-146.1;100.0
45864;BME280;31579;52.354;16.974;2023-04-25T04:24:25;435.6;;;-146.1;100.0
45864;BME280;31579;52.354;16.974;2023-04-25T04:25:29;437.2;;;-146.1;100.0
45864;BME280;31579;52.354;16.974;2023-04-25T04:26:33;439.0;;;-146.1;100.0
45864;BME280;31579;52.354;16.974;2023-04-25T04:27:37;440.9;;;-146.1;100.0
45864;BME280;31579;52.354;16.974;2023-04-25T04:28:42;444.1;;;-146.1;100.0
45864;BME280;31579;52.354;16.974;2023-04-25T04:29:46;443.9;;;-146.1;100.0
45864;BME280;31579;52.354;16.974;2023-04-25T04:30:22;434.4;;;-146.1;100.0
45864;BME280;31579;52.354;16.974;2023-04-25T04:31:25;431.9;;;-146.1;100.0
45864;BME280;31579;52.354;16.974;2023-04-25T04:32:29;435.6;;;-146.1;100.0
45864;BME280;31579;52.354;16.974;2023-04-25T04:33:33;438.4;;;-146.1;100.0
45864;BME280;31579;52.354;16.974;2023-04-25T04:34:37;440.6;;;-146.1;100.0
45864;BME280;31579;52.354;16.974;2023-04-25T04:35:42;443.7;;;-146.1;100.0
45864;BME280;31579;52.354;16.974;2023-04-25T04:36:45;444.7;;;-146.1;100.0
45864;BME280;31579;52.354;16.974;2023-04-25T04:37:50;445.8;;;-146.1;100.0
45864;BME280;31579;52.354;16.974;2023-04-25T04:38:53;447.6;;;-146.1;100.0
45864;BME280;31579;52.354;16.974;2023-04-25T04:39:57;448.6;;;-146.1;100.0
45864;BME280;31579;52.354;16.974;2023-04-25T04:41:02;449.5;;;-146.1;100.0
45864;BME280;31579;52.354;16.974;2023-04-25T04:42:05;450.9;;;-146.1;100.0
45864;BME280;31579;52.354;16.974;2023-04-25T04:43:10;452.0;;;-146.1;100.0
45864;BME280;31579;52.354;16.974;2023-04-25T04:44:14;452.8;;;-146.1;100.0
45864;BME280;31579;52.354;16.974;2023-04-25T04:45:17;468.8;;;-146.1;100.0
45864;BME280;31579;52.354;16.974;2023-04-25T04:46:21;461.2;;;-146.1;100.0
45864;BME280;31579;52.354;16.974;2023-04-25T04:47:24;460.5;;;-146.1;100.0
45864;BME280;31579;52.354;16.974;2023-04-25T04:48:29;460.3;;;-146.1;100.0
45864;BME280;31579;52.354;16.974;2023-04-25T04:49:33;458.9;;;-146.1;100.0
45864;BME280;31579;52.354;16.974;2023-04-25T04:50:37;457.4;;;-146.1;100.0
45864;BME280;31579;52.354;16.974;2023-04-25T04:51:40;456.7;;;-146.1;100.0
45864;BME280;31579;52.354;16.974;2023-04-25T04:52:44;455.8;;;-146.1;100.0
45864;BME280;31579;52.354;16.974;2023-04-25T04:53:48;455.0;;;-146.1;100.0
45864;BME280;31579;52.354;16.974;2023-04-25T04:54:53;455.1;;;-146.1;100.0
45864;BME280;31579;52.354;16.974;2023-04-25T04:55:57;453.7;;;-146.1;100.0
45864;BME280;31579;52.354;16.974;2023-04-25T04:57:01;454.6;;;-146.1;100.0
45864;BME280;31579;52.354;16.974;2023-04-25T04:58:03;460.9;;;-146.1;100.0
45864;BME280;31579;52.354;16.974;2023-04-25T04:59:07;457.3;;;-146.1;100.0
45864;BME280;31579;52.354;16.974;2023-04-25T05:00:13;455.1;;;-146.1;100.0
45864;BME280;31579;52.354;16.974;2023-04-25T05:01:16;456.1;;;-146.1;100.0
45864;BME280;31579;52.354;16.974;2023-04-25T05:02:26;443.0;;;-146.1;100.0
45864;BME280;31579;52.354;16.974;2023-04-25T05:03:30;445.9;;;-146.1;100.0
45864;BME280;31579;52.354;16.974;2023-04-25T05:04:34;445.3;;;-146.1;100.0
45864;BME280;31579;52.354;16.974;2023-04-25T05:05:38;444.6;;;-146.1;100.0
45864;BME280;31579;52.354;16.974;2023-04-25T05:06:42;440.6;;;-146.1;100.0
45864;BME280;31579;52.354;16.974;2023-04-25T05:07:46;438.5;;;-146.1;100.0
45864;BME280;31579;52.354;16.974;2023-04-25T05:08:50;436.3;;;-146.1;100.0
45864;BME280;31579;52.354;16.974;2023-04-25T05:09:55;433.1;;;-146.1;100.0
45864;BME280;31579;52.354;16.974;2023-04-25T05:10:59;431.1;;;-146.1;100.0
45864;BME280;31579;52.354;16.974;2023-04-25T05:12:09;426.0;;;-146.1;100.0
45864;BME280;31579;52.354;16.974;2023-04-25T05:13:13;424.9;;;-146.1;100.0
45864;BME280;31579;52.354;16.974;2023-04-25T05:14:17;422.0;;;-146.1;100.0
45864;BME280;31579;52.354;16.974;2023-04-25T05:15:21;421.8;;;-146.1;100.0
45864;BME280;31579;52.354;16.974;2023-04-25T05:16:25;420.6;;;-146.1;100.0
45864;BME280;31579;52.354;16.974;2023-04-25T05:17:29;419.0;;;-146.1;100.0
45864;BME280;31579;52.354;16.974;2023-04-25T05:18:33;416.9;;;-146.1;100.0
45864;BME280;31579;52.354;16.974;2023-04-25T05:19:37;414.3;;;-146.1;100.0
45864;BME280;31579;52.354;16.974;2023-04-25T05:20:41;414.7;;;-146.1;100.0
45864;BME280;31579;52.354;16.974;2023-04-25T05:21:45;413.9;;;-146.1;100.0
45864;BME280;31579;52.354;16.974;2023-04-25T05:22:49;411.5;;;-146.1;100.0
45864;BME280;31579;52.354;16.974;2023-04-25T05:23:53;413.0;;;-146.1;100.0
45864;BME280;31579;52.354;16.974;2023-04-25T05:24:58;407.3;;;-146.1;100.0
45864;BME280;31579;52.354;16.974;2023-04-25T05:26:02;404.1;;;-146.1;100.0
45864;BME280;31579;52.354;16.974;2023-04-25T05:27:06;400.6;;;-146.1;100.0
45864;BME280;31579;52.354;16.974;2023-04-25T05:28:10;394.6;;;-146.1;100.0
45864;BME280;31579;52.354;16.974;2023-04-25T05:29:14;390.1;;;-146.1;100.0
45864;BME280;31579;52.354;16.974;2023-04-25T05:30:18;386.7;;;-146.1;100.0
45864;BME280;31579;52.354;16.974;2023-04-25T05:31:22;383.6;;;-146.1;100.0
45864;BME280;31579;52.354;16.974;2023-04-25T05:32:26;381.4;;;-146.1;100.0
45864;BME280;31579;52.354;16.974;2023-04-25T05:33:30;377.4;;;-146.1;100.0
45864;BME280;31579;52.354;16.974;2023-04-25T05:34:34;372.0;;;-146.1;100.0
45864;BME280;31579;52.354;16.974;2023-04-25T05:35:38;368.0;;;-146.1;100.0
45864;BME280;31579;52.354;16.974;2023-04-25T05:36:42;358.7;;;-146.1;100.0
45864;BME280;31579;52.354;16.974;2023-04-25T05:37:46;353.4;;;-146.1;100.0
45864;BME280;31579;52.354;16.974;2023-04-25T05:38:50;345.8;;;-146.1;100.0
45864;BME280;31579;52.354;16.974;2023-04-25T05:39:54;339.4;;;-146.1;100.0
45864;BME280;31579;52.354;16.974;2023-04-25T05:40:58;333.0;;;-146.1;100.0
45864;BME280;31579;52.354;16.974;2023-04-25T05:42:02;331.5;;;-146.1;100.0
45864;BME280;31579;52.354;16.974;2023-04-25T05:43:06;329.2;;;-146.1;100.0
45864;BME280;31579;52.354;16.974;2023-04-25T05:44:10;326.3;;;-146.1;100.0
45864;BME280;31579;52.354;16.974;2023-04-25T05:45:14;321.2;;;-146.1;100.0